Time;durP1;ratioP1;P1;durP2;ratioP2;P2;SDS_P1;SDS_P2;PMS_P1;PMS_P2;Temp;Humidity;BMP_temperature;BMP_pressure;BME280_temperature;BME280_humidity;BME280_pressure;Samples;Min_cycle;Max_cycle;Signal;HPM_P1;HPM_P2
2022/03/28 00:02:16;;;;;;;15.50;10.20;;;10.40;99.90;;;;;;5031254;28;20460;-68
2022/03/28 00:04:42;;;;;;;13.80;9.53;;;10.30;99.90;;;;;;5030086;28;20175;-70
2022/03/28 00:07:07;;;;;;;18.37;11.73;;;10.20;99.90;;;;;;5013398;28;20183;-69
2022/03/28 00:09:33;;;;;;;15.70;11.13;;;10.20;99.90;;;;;;5041477;28;20717;-67
2022/03/28 00:11:58;;;;;;;16.43;10.17;;;10.20;99.90;;;;;;5054833;28;20214;-67
2022/03/28 00:14:24;;;;;;;15.70;10.50;;;10.20;99.90;;;;;;5053168;28;20167;-67
2022/03/28 00:16:49;;;;;;;14.83;10.00;;;10.10;99.90;;;;;;5056543;28;20187;-66
2022/03/28 00:19:15;;;;;;;16.23;10.23;;;10.20;99.90;;;;;;5054459;28;20182;-64
2022/03/28 00:21:41;;;;;;;13.70;10.37;;;10.30;99.90;;;;;;5048614;28;20199;-69
2022/03/28 00:24:06;;;;;;;13.87;9.67;;;10.30;99.90;;;;;;5045104;28;20179;-64
2022/03/28 00:26:33;;;;;;;16.47;10.47;;;10.40;99.90;;;;;;5054466;28;20178;-66
2022/03/28 00:28:59;;;;;;;13.33;10.17;;;10.40;99.90;;;;;;5033483;28;20242;-68
2022/03/28 00:31:24;;;;;;;15.27;10.00;;;10.50;99.90;;;;;;5030975;28;20557;-67
2022/03/28 00:33:50;;;;;;;15.73;10.10;;;10.60;99.90;;;;;;5031024;28;20211;-69
2022/03/28 00:36:15;;;;;;;13.93;9.63;;;10.60;99.90;;;;;;5030273;28;20214;-66
2022/03/28 00:38:41;;;;;;;13.93;10.07;;;10.60;99.90;;;;;;5027009;28;20197;-67
2022/03/28 00:41:06;;;;;;;13.50;9.57;;;10.60;99.90;;;;;;5030392;28;20543;-68
2022/03/28 00:43:32;;;;;;;12.10;10.00;;;10.60;99.90;;;;;;5030860;28;20601;-69
2022/03/28 00:45:57;;;;;;;15.67;10.17;;;10.70;99.90;;;;;;5030448;28;20167;-67
2022/03/28 00:48:26;;;;;;;14.73;10.30;;;10.70;99.90;;;;;;5029319;28;20239;-69
2022/03/28 00:50:54;;;;;;;13.60;9.20;;;10.70;99.90;;;;;;5012178;28;20598;-68
2022/03/28 00:53:20;;;;;;;14.70;10.57;;;10.70;99.90;;;;;;5030146;28;20445;-67
2022/03/28 00:55:45;;;;;;;14.90;10.30;;;10.60;99.90;;;;;;5028943;28;20425;-69
2022/03/28 00:58:11;;;;;;;14.43;10.60;;;10.50;99.90;;;;;;5029933;28;20183;-69
2022/03/28 01:00:36;;;;;;;12.17;9.73;;;10.50;99.90;;;;;;5029710;28;20254;-67
2022/03/28 01:03:03;;;;;;;13.20;8.90;;;10.50;99.90;;;;;;5030373;28;20229;-68
2022/03/28 01:05:28;;;;;;;14.67;10.27;;;10.50;99.90;;;;;;5030239;28;20166;-68
2022/03/28 01:07:55;;;;;;;14.20;9.50;;;10.60;99.90;;;;;;5028663;28;20432;-68
2022/03/28 01:10:22;;;;;;;16.10;10.50;;;10.60;99.90;;;;;;5030012;28;20179;-68
2022/03/28 01:12:48;;;;;;;13.90;10.27;;;10.60;99.90;;;;;;5029901;28;20453;-69
2022/03/28 01:15:14;;;;;;;14.70;9.93;;;10.50;99.90;;;;;;5029772;28;20414;-69
2022/03/28 01:20:30;;;;;;;13.87;10.10;;;10.40;99.90;;;;;;5029846;28;20460;-68
2022/03/28 01:22:55;;;;;;;15.33;10.20;;;10.30;99.90;;;;;;5029505;28;20464;-68
2022/03/28 01:25:25;;;;;;;14.20;9.53;;;10.20;99.90;;;;;;5029851;28;20409;-68
2022/03/28 01:27:52;;;;;;;12.70;9.77;;;10.10;99.90;;;;;;5029111;28;20305;-69
2022/03/28 01:30:20;;;;;;;13.50;9.40;;;10.20;99.90;;;;;;5029491;28;20417;-69
2022/03/28 01:32:48;;;;;;;14.47;10.50;;;10.20;99.90;;;;;;5029815;28;20789;-70
2022/03/28 01:35:32;;;;;;;14.27;10.43;;;10.20;99.90;;;;;;5029618;28;20509;-68
2022/03/28 01:37:59;;;;;;;14.70;9.63;;;10.20;99.90;;;;;;5028499;28;20441;-66
2022/03/28 01:40:25;;;;;;;16.33;10.53;;;10.00;99.90;;;;;;5029178;28;20421;-67
2022/03/28 01:42:50;;;;;;;14.50;9.70;;;10.00;99.90;;;;;;5029246;28;20837;-68
2022/03/28 01:45:18;;;;;;;15.23;10.50;;;10.10;99.90;;;;;;5029991;28;20420;-68
2022/03/28 01:47:44;;;;;;;14.20;10.13;;;10.00;99.90;;;;;;5029703;28;20182;-68
2022/03/28 01:50:09;;;;;;;13.60;9.60;;;10.00;99.90;;;;;;5028102;28;22651;-68
2022/03/28 01:52:35;;;;;;;14.30;9.93;;;10.00;99.90;;;;;;5029498;28;20484;-66
2022/03/28 01:55:00;;;;;;;16.77;10.67;;;10.10;99.90;;;;;;5029416;28;20174;-68
2022/03/28 01:57:26;;;;;;;12.80;8.90;;;10.10;99.90;;;;;;5029323;28;20171;-69
2022/03/28 01:59:52;;;;;;;13.63;10.07;;;10.10;99.90;;;;;;5028243;28;20217;-69
2022/03/28 02:02:17;;;;;;;13.40;9.60;;;10.20;99.90;;;;;;5029573;28;20984;-69
2022/03/28 02:04:43;;;;;;;13.33;9.50;;;10.20;99.90;;;;;;5029500;28;20178;-68
2022/03/28 02:07:08;;;;;;;14.20;9.77;;;10.10;99.90;;;;;;5029407;28;20171;-69
2022/03/28 02:09:34;;;;;;;13.67;9.80;;;10.10;99.90;;;;;;5028865;28;20254;-68
2022/03/28 02:11:59;;;;;;;15.53;11.30;;;10.10;99.90;;;;;;5028533;28;20601;-68
2022/03/28 02:14:25;;;;;;;14.60;10.90;;;10.10;99.90;;;;;;5029410;28;20183;-68
2022/03/28 02:16:50;;;;;;;16.87;11.47;;;10.10;99.90;;;;;;5029388;28;20175;-68
2022/03/28 02:19:16;;;;;;;13.80;10.00;;;10.20;99.90;;;;;;5026894;28;20175;-68
2022/03/28 02:21:41;;;;;;;13.37;9.70;;;10.10;99.90;;;;;;5031799;28;20598;-69
2022/03/28 02:24:07;;;;;;;16.00;11.07;;;10.10;99.90;;;;;;5015094;28;20190;-69
2022/03/28 02:26:33;;;;;;;11.73;9.23;;;10.10;99.90;;;;;;5032758;28;20635;-66
2022/03/28 02:28:58;;;;;;;16.93;11.17;;;10.10;99.90;;;;;;5032800;28;20182;-68
2022/03/28 02:31:24;;;;;;;14.43;10.60;;;10.10;99.90;;;;;;5013309;28;20476;-69
2022/03/28 02:33:49;;;;;;;15.60;10.17;;;10.10;99.90;;;;;;5032862;28;20187;-68
2022/03/28 02:36:15;;;;;;;14.63;10.70;;;10.10;99.90;;;;;;5032486;28;20193;-66
2022/03/28 02:38:41;;;;;;;12.47;9.60;;;10.10;99.90;;;;;;5031825;28;20175;-68
2022/03/28 02:41:06;;;;;;;13.90;10.13;;;10.00;99.90;;;;;;5032191;28;20198;-67
2022/03/28 02:43:32;;;;;;;18.20;10.63;;;10.00;99.90;;;;;;5014450;28;20232;-67
2022/03/28 02:45:57;;;;;;;14.50;10.13;;;9.90;99.90;;;;;;5032402;28;20433;-68
2022/03/28 02:48:23;;;;;;;16.13;10.93;;;9.90;99.90;;;;;;5031797;28;20179;-67
2022/03/28 02:50:49;;;;;;;17.53;9.57;;;9.90;99.90;;;;;;5032306;28;20190;-68
2022/03/28 02:53:15;;;;;;;16.60;11.30;;;9.90;99.90;;;;;;5032189;28;20254;-68
2022/03/28 02:55:41;;;;;;;14.27;9.53;;;9.90;99.90;;;;;;5032376;28;20457;-68
2022/03/28 02:58:06;;;;;;;15.23;10.93;;;9.90;99.90;;;;;;5030884;28;20430;-68
2022/03/28 03:00:32;;;;;;;14.33;10.10;;;9.90;99.90;;;;;;5031987;28;20212;-69
2022/03/28 03:02:57;;;;;;;14.50;10.60;;;9.90;99.90;;;;;;5031933;28;20543;-67
2022/03/28 03:05:23;;;;;;;14.30;10.17;;;10.00;99.90;;;;;;5032087;28;20573;-66
2022/03/28 03:07:52;;;;;;;14.55;11.93;;;10.00;99.90;;;;;;5031031;28;20815;-66
2022/03/28 03:10:17;;;;;;;17.13;11.20;;;10.00;99.90;;;;;;5031161;28;20203;-67
2022/03/28 03:12:43;;;;;;;13.70;10.30;;;10.00;99.90;;;;;;5031666;28;21020;-67
2022/03/28 03:15:08;;;;;;;14.43;10.33;;;10.10;99.90;;;;;;5031931;28;20257;-68
2022/03/28 03:17:35;;;;;;;14.97;11.07;;;10.00;99.90;;;;;;5031871;28;20250;-69
2022/03/28 03:20:01;;;;;;;18.33;12.00;;;9.90;99.90;;;;;;5030671;28;20182;-69
2022/03/28 03:22:27;;;;;;;16.67;10.57;;;9.80;99.90;;;;;;5031497;28;20453;-69
2022/03/28 03:24:52;;;;;;;17.00;10.30;;;9.80;99.90;;;;;;5031706;28;20817;-68
2022/03/28 03:27:18;;;;;;;14.57;10.10;;;9.80;99.90;;;;;;5031917;28;20179;-69
2022/03/28 03:29:43;;;;;;;16.20;10.10;;;9.80;99.90;;;;;;5029835;28;20250;-67
2022/03/28 03:32:09;;;;;;;18.00;12.40;;;9.60;99.90;;;;;;5030829;28;20203;-68
2022/03/28 03:34:35;;;;;;;20.13;12.43;;;9.40;99.90;;;;;;5031941;28;20218;-68
2022/03/28 03:37:01;;;;;;;15.43;11.27;;;9.30;99.90;;;;;;5031491;28;20659;-69
2022/03/28 03:39:27;;;;;;;19.33;11.10;;;9.30;99.90;;;;;;5031235;28;20186;-68
2022/03/28 03:41:53;;;;;;;16.63;12.13;;;9.30;99.90;;;;;;5030707;28;20472;-68
2022/03/28 03:44:19;;;;;;;15.00;10.30;;;9.30;99.90;;;;;;5030356;28;20922;-68
2022/03/28 03:46:45;;;;;;;13.97;10.53;;;9.40;99.90;;;;;;5030627;28;20563;-68
2022/03/28 03:49:10;;;;;;;15.37;11.40;;;9.40;99.90;;;;;;5031009;28;20467;-67
2022/03/28 03:51:36;;;;;;;18.57;11.17;;;9.40;99.90;;;;;;5029645;28;20441;-69
2022/03/28 03:54:02;;;;;;;15.10;9.73;;;9.40;99.90;;;;;;5031109;28;20186;-68
2022/03/28 03:56:28;;;;;;;22.33;12.83;;;9.40;99.90;;;;;;5031300;28;20171;-68
2022/03/28 03:58:55;;;;;;;18.17;11.13;;;9.40;99.90;;;;;;5031446;28;20428;-68
2022/03/28 04:01:21;;;;;;;15.10;10.43;;;9.50;99.90;;;;;;5030183;28;20434;-67
2022/03/28 04:03:47;;;;;;;14.23;10.40;;;9.40;99.90;;;;;;5029866;28;20461;-66
2022/03/28 04:06:12;;;;;;;14.57;10.83;;;9.40;99.90;;;;;;5030691;28;20424;-68
2022/03/28 04:08:38;;;;;;;16.17;12.57;;;9.50;99.90;;;;;;5030988;28;20183;-69
2022/03/28 04:11:04;;;;;;;17.57;12.37;;;9.50;99.90;;;;;;5012613;28;20175;-69
2022/03/28 04:13:31;;;;;;;18.97;12.73;;;9.40;99.90;;;;;;5029809;28;20965;-67
2022/03/28 04:15:57;;;;;;;17.90;12.60;;;9.40;99.90;;;;;;5030455;28;20422;-67
2022/03/28 04:18:25;;;;;;;18.07;11.40;;;9.40;99.90;;;;;;5030578;28;20479;-68
2022/03/28 04:20:51;;;;;;;17.40;11.63;;;9.40;99.90;;;;;;5028521;28;20414;-68
2022/03/28 04:23:17;;;;;;;15.70;11.57;;;9.50;99.90;;;;;;5029379;28;21092;-69
2022/03/28 04:25:42;;;;;;;16.60;10.53;;;9.50;99.90;;;;;;5030264;28;20430;-67
2022/03/28 04:28:08;;;;;;;17.20;11.90;;;9.50;99.90;;;;;;5012581;28;20175;-67
2022/03/28 04:30:34;;;;;;;17.20;11.70;;;9.50;99.90;;;;;;5011092;28;20445;-67
2022/03/28 04:33:00;;;;;;;15.60;10.80;;;9.60;99.90;;;;;;5029999;28;20206;-67
2022/03/28 04:35:25;;;;;;;17.30;12.27;;;9.50;99.90;;;;;;5029375;28;20648;-67
2022/03/28 04:37:51;;;;;;;17.60;12.17;;;9.60;99.90;;;;;;5029328;28;20440;-67
2022/03/28 04:40:17;;;;;;;16.63;11.87;;;9.50;99.90;;;;;;5030577;28;20245;-69
2022/03/28 04:42:44;;;;;;;13.97;11.57;;;9.50;99.90;;;;;;5049334;22;20334;-67
2022/03/28 04:45:10;;;;;;;17.83;12.20;;;9.40;99.90;;;;;;5014782;28;20418;-66
2022/03/28 04:47:36;;;;;;;18.67;11.87;;;9.40;99.90;;;;;;5016976;28;20792;-67
2022/03/28 04:50:03;;;;;;;18.60;12.00;;;9.40;99.90;;;;;;5015707;28;20255;-68
2022/03/28 04:52:29;;;;;;;19.97;11.40;;;9.50;99.90;;;;;;5015976;28;20326;-68
2022/03/28 04:54:55;;;;;;;13.93;9.80;;;9.40;99.90;;;;;;5015887;28;20984;-68
2022/03/28 04:57:20;;;;;;;14.43;10.87;;;9.40;99.90;;;;;;5016534;28;20179;-68
2022/03/28 04:59:46;;;;;;;22.00;12.90;;;9.40;99.90;;;;;;5016870;28;20183;-69
2022/03/28 05:02:11;;;;;;;17.43;11.43;;;9.50;99.90;;;;;;5016240;28;20218;-68
2022/03/28 05:04:37;;;;;;;18.40;11.70;;;9.50;99.90;;;;;;5027529;28;20245;-69
2022/03/28 05:07:03;;;;;;;17.57;10.80;;;9.50;99.90;;;;;;5043146;28;20209;-69
2022/03/28 05:09:29;;;;;;;23.53;12.63;;;9.40;99.90;;;;;;5041281;28;20465;-68
2022/03/28 05:11:54;;;;;;;16.63;11.67;;;9.40;99.90;;;;;;5039414;28;20599;-68
2022/03/28 05:14:22;;;;;;;16.70;11.70;;;9.40;99.90;;;;;;5043525;28;20225;-69
2022/03/28 05:16:48;;;;;;;17.90;11.70;;;9.40;99.90;;;;;;5043749;28;20290;-68
2022/03/28 05:19:14;;;;;;;14.17;10.53;;;9.40;99.90;;;;;;5019465;28;20479;-69
2022/03/28 05:21:39;;;;;;;18.50;11.70;;;9.50;99.90;;;;;;4994880;28;20452;-68
2022/03/28 05:24:05;;;;;;;15.67;10.87;;;9.50;99.90;;;;;;5011545;28;20215;-69
2022/03/28 05:26:31;;;;;;;15.10;10.63;;;9.40;99.90;;;;;;5041232;28;20198;-69
2022/03/28 05:28:56;;;;;;;17.80;11.83;;;9.50;99.90;;;;;;5036351;28;21026;-68
2022/03/28 05:31:22;;;;;;;18.17;12.30;;;9.50;99.90;;;;;;5008618;28;20694;-68
2022/03/28 05:33:48;;;;;;;19.17;11.60;;;9.50;99.90;;;;;;5050995;28;20205;-68
2022/03/28 05:36:14;;;;;;;16.83;11.47;;;9.50;99.90;;;;;;5051521;28;20686;-69
2022/03/28 05:38:40;;;;;;;16.97;10.90;;;9.50;99.90;;;;;;5033924;28;20234;-69
2022/03/28 05:41:06;;;;;;;17.47;12.20;;;9.40;99.90;;;;;;5038363;28;20603;-69
2022/03/28 05:43:34;;;;;;;24.50;12.83;;;9.50;99.90;;;;;;4995011;28;20477;-68
2022/03/28 05:46:00;;;;;;;14.17;11.30;;;9.50;99.90;;;;;;5011955;28;21126;-68
2022/03/28 05:48:25;;;;;;;19.87;12.27;;;9.50;99.90;;;;;;5025668;28;20418;-71
2022/03/28 05:50:51;;;;;;;20.10;11.53;;;9.50;99.90;;;;;;5030232;28;20293;-69
2022/03/28 05:53:16;;;;;;;15.43;11.40;;;9.60;99.90;;;;;;5030173;28;20201;-67
2022/03/28 05:55:46;;;;;;;16.87;13.10;;;9.60;99.90;;;;;;5017939;28;20174;-69
2022/03/28 05:58:12;;;;;;;18.80;12.00;;;9.60;99.90;;;;;;5036841;28;20205;-69
2022/03/28 06:00:39;;;;;;;18.47;11.70;;;9.60;99.90;;;;;;5018986;28;20410;-69
2022/03/28 06:03:04;;;;;;;17.43;12.37;;;9.50;99.90;;;;;;5034723;28;20464;-70
2022/03/28 06:05:36;;;;;;;16.57;12.80;;;9.50;99.90;;;;;;5040350;28;20410;-70
2022/03/28 06:08:03;;;;;;;19.50;13.47;;;9.50;99.90;;;;;;5040181;28;20416;-70
2022/03/28 06:10:29;;;;;;;22.00;14.00;;;9.60;99.90;;;;;;5021663;28;20757;-70
2022/03/28 06:12:54;;;;;;;17.80;12.10;;;9.50;99.90;;;;;;5038152;28;20468;-69
2022/03/28 06:15:20;;;;;;;14.47;11.83;;;9.50;99.90;;;;;;5037972;28;20409;-69
2022/03/28 06:17:46;;;;;;;16.10;12.40;;;9.60;99.90;;;;;;5036818;28;20175;-68
2022/03/28 06:20:12;;;;;;;18.73;13.00;;;9.60;99.90;;;;;;5036015;28;20170;-68
2022/03/28 06:22:38;;;;;;;21.30;12.90;;;9.60;99.90;;;;;;5036372;28;20209;-68
2022/03/28 06:25:04;;;;;;;24.03;14.43;;;9.60;99.90;;;;;;5034706;28;20437;-69
2022/03/28 06:27:30;;;;;;;18.70;13.70;;;9.70;99.90;;;;;;5037573;28;20515;-69
2022/03/28 06:29:56;;;;;;;19.73;13.80;;;9.70;99.90;;;;;;5037915;28;20410;-69
2022/03/28 06:32:22;;;;;;;16.07;13.67;;;9.80;99.90;;;;;;5037430;28;20425;-69
2022/03/28 06:34:48;;;;;;;17.90;13.77;;;9.80;99.90;;;;;;5035853;28;20425;-69
2022/03/28 06:37:15;;;;;;;23.00;13.20;;;9.80;99.90;;;;;;5015406;28;20185;-69
2022/03/28 06:39:42;;;;;;;17.43;12.60;;;9.80;99.90;;;;;;5015820;28;20472;-68
2022/03/28 06:42:08;;;;;;;17.30;12.37;;;9.80;99.90;;;;;;5015695;28;20473;-68
2022/03/28 06:44:34;;;;;;;17.67;12.80;;;9.90;99.90;;;;;;5014871;28;20419;-68
2022/03/28 06:46:59;;;;;;;19.13;13.83;;;9.90;99.90;;;;;;5016370;28;20437;-68
2022/03/28 06:49:25;;;;;;;24.13;14.30;;;9.90;99.90;;;;;;5017323;28;20187;-68
2022/03/28 06:51:50;;;;;;;18.37;12.33;;;10.00;99.90;;;;;;5015932;28;20645;-68
2022/03/28 06:54:19;;;;;;;19.83;12.80;;;10.00;99.90;;;;;;5017431;28;20196;-70
2022/03/28 06:56:45;;;;;;;26.97;19.40;;;10.00;99.90;;;;;;4999647;28;20168;-70
2022/03/28 06:59:11;;;;;;;18.60;13.40;;;10.10;99.90;;;;;;5018278;28;20472;-70
2022/03/28 07:01:36;;;;;;;21.30;14.00;;;10.10;99.90;;;;;;5001662;28;20418;-69
2022/03/28 07:04:03;;;;;;;21.60;14.17;;;10.20;99.90;;;;;;5021928;28;20193;-69
2022/03/28 07:06:28;;;;;;;19.30;13.70;;;10.20;99.90;;;;;;5018286;28;20258;-71
2022/03/28 07:08:54;;;;;;;19.17;13.90;;;10.20;99.90;;;;;;5018393;28;20453;-69
2022/03/28 07:11:20;;;;;;;23.90;14.00;;;10.20;99.90;;;;;;5016558;28;20171;-70
2022/03/28 07:13:46;;;;;;;22.30;13.37;;;10.30;99.90;;;;;;5016849;28;20188;-70
2022/03/28 07:16:11;;;;;;;19.33;13.93;;;10.30;99.90;;;;;;5015951;28;20176;-68
2022/03/28 07:18:37;;;;;;;21.40;15.03;;;10.40;99.90;;;;;;5015868;28;20570;-69
2022/03/28 07:21:03;;;;;;;18.07;13.73;;;10.40;99.90;;;;;;5016852;28;20186;-68
2022/03/28 07:23:28;;;;;;;19.03;13.87;;;10.50;99.90;;;;;;5015765;28;20660;-69
2022/03/28 07:25:56;;;;;;;18.27;14.33;;;10.60;99.90;;;;;;4998457;28;20258;-68
2022/03/28 07:28:21;;;;;;;16.80;14.07;;;10.70;99.90;;;;;;4998293;28;20174;-71
2022/03/28 07:30:47;;;;;;;19.90;13.93;;;10.80;99.90;;;;;;5016470;28;20498;-69
2022/03/28 07:33:13;;;;;;;18.97;13.60;;;10.80;99.90;;;;;;5016395;28;20199;-69
2022/03/28 07:35:40;;;;;;;15.70;13.23;;;10.90;99.90;;;;;;4999220;28;20233;-70
2022/03/28 07:38:08;;;;;;;20.67;14.20;;;11.00;99.90;;;;;;5016120;28;20445;-68
2022/03/28 07:40:36;;;;;;;20.43;14.70;;;11.10;99.90;;;;;;5016790;28;20418;-69
2022/03/28 07:43:02;;;;;;;21.67;15.80;;;11.20;99.90;;;;;;5015995;28;21152;-68
2022/03/28 07:45:28;;;;;;;20.00;13.50;;;11.30;99.90;;;;;;5016632;28;20438;-70
2022/03/28 07:47:53;;;;;;;18.53;14.87;;;11.40;99.90;;;;;;5017002;28;20410;-69
2022/03/28 07:50:19;;;;;;;18.47;14.80;;;11.50;99.90;;;;;;5015315;28;20403;-69
2022/03/28 07:52:44;;;;;;;20.07;14.83;;;11.60;99.90;;;;;;5017335;28;20196;-69
2022/03/28 07:55:12;;;;;;;18.90;15.10;;;11.60;99.90;;;;;;5016040;28;20233;-70
2022/03/28 07:57:37;;;;;;;22.23;15.27;;;11.70;99.90;;;;;;5015833;28;20190;-70
2022/03/28 08:00:06;;;;;;;24.07;16.60;;;11.90;99.90;;;;;;5015331;28;20415;-71
2022/03/28 08:02:32;;;;;;;21.27;15.00;;;11.90;99.90;;;;;;4998935;28;20586;-70
2022/03/28 08:04:58;;;;;;;22.70;14.93;;;12.00;99.90;;;;;;5015487;28;20494;-70
2022/03/28 08:07:23;;;;;;;18.93;15.10;;;12.10;99.90;;;;;;5015170;28;20168;-71
2022/03/28 08:09:49;;;;;;;21.30;15.33;;;12.20;99.90;;;;;;5014619;28;20426;-69
2022/03/28 08:12:15;;;;;;;24.13;16.47;;;12.20;99.90;;;;;;4997160;28;20485;-69
2022/03/28 08:14:41;;;;;;;24.33;16.97;;;12.30;99.90;;;;;;5016010;28;20501;-69
2022/03/28 08:17:06;;;;;;;21.80;16.83;;;12.40;99.90;;;;;;5015131;28;20207;-69
2022/03/28 08:19:32;;;;;;;20.23;16.27;;;12.50;99.90;;;;;;5014915;28;20546;-69
2022/03/28 08:21:58;;;;;;;27.53;17.00;;;12.60;99.90;;;;;;5014851;28;20409;-68
2022/03/28 08:24:24;;;;;;;24.10;16.10;;;12.70;99.90;;;;;;5016173;28;20554;-68
2022/03/28 08:26:49;;;;;;;23.37;16.07;;;12.80;99.90;;;;;;5014650;28;20410;-69
2022/03/28 08:29:15;;;;;;;28.63;17.90;;;12.90;99.90;;;;;;5014503;28;20200;-69
2022/03/28 08:31:41;;;;;;;21.47;17.57;;;13.00;99.90;;;;;;5014265;28;20195;-68
2022/03/28 08:34:07;;;;;;;23.13;16.40;;;13.10;99.90;;;;;;5016431;28;20422;-69
2022/03/28 08:36:34;;;;;;;23.80;18.70;;;13.20;99.90;;;;;;5015027;28;20214;-69
2022/03/28 08:39:00;;;;;;;27.73;17.60;;;13.20;99.90;;;;;;5035382;28;20414;-69
2022/03/28 08:41:26;;;;;;;28.53;17.87;;;13.30;99.90;;;;;;5034485;28;20429;-69
2022/03/28 08:43:52;;;;;;;23.93;17.97;;;13.40;99.90;;;;;;5035305;28;20215;-68
2022/03/28 08:46:18;;;;;;;24.25;18.30;;;13.60;99.90;;;;;;5017222;28;20924;-68
2022/03/28 08:48:44;;;;;;;25.53;18.50;;;13.60;99.90;;;;;;5033860;28;20179;-69
2022/03/28 08:51:11;;;;;;;24.77;18.73;;;13.70;99.90;;;;;;5034508;28;20182;-68
2022/03/28 08:53:38;;;;;;;23.60;18.30;;;13.90;99.90;;;;;;5034355;28;20202;-70
2022/03/28 08:56:04;;;;;;;23.00;18.53;;;14.00;99.90;;;;;;5034853;28;20485;-70
2022/03/28 08:58:30;;;;;;;24.70;16.93;;;14.20;99.90;;;;;;5034058;28;20965;-69
2022/03/28 09:00:56;;;;;;;20.53;16.73;;;14.30;99.90;;;;;;5035159;28;20464;-69
2022/03/28 09:03:39;;;;;;;22.00;16.97;;;14.40;99.90;;;;;;5035121;28;20206;-69
2022/03/28 09:06:31;;;;;;;21.00;17.37;;;14.50;99.90;;;;;;5016661;28;20297;-69
2022/03/28 09:09:16;;;;;;;26.57;19.40;;;14.60;99.90;;;;;;5032206;28;20409;-69
2022/03/28 09:11:47;;;;;;;25.90;17.53;;;14.60;99.90;;;;;;5033629;28;20405;-69
2022/03/28 09:14:29;;;;;;;22.00;16.90;;;14.70;99.90;;;;;;5033341;28;20529;-69
2022/03/28 09:17:11;;;;;;;23.37;18.10;;;14.80;99.90;;;;;;5033611;28;20812;-69
2022/03/28 09:19:55;;;;;;;23.13;17.83;;;15.00;99.90;;;;;;5031730;28;20405;-69
2022/03/28 09:22:23;;;;;;;21.93;17.13;;;15.10;99.90;;;;;;5033557;28;20556;-69
2022/03/28 09:24:51;;;;;;;22.30;17.73;;;15.10;99.90;;;;;;5033562;28;20412;-69
2022/03/28 09:27:20;;;;;;;23.63;17.57;;;15.10;99.90;;;;;;5033541;28;20406;-69
2022/03/28 09:29:54;;;;;;;23.70;17.00;;;15.10;99.90;;;;;;5036147;28;20424;-69
2022/03/28 09:32:25;;;;;;;22.67;16.87;;;15.20;99.90;;;;;;5039714;28;20817;-69
2022/03/28 09:35:09;;;;;;;21.93;17.90;;;15.40;99.90;;;;;;5021789;28;20483;-69
2022/03/28 09:37:58;;;;;;;24.20;17.00;;;15.50;99.90;;;;;;5040024;28;20413;-69
2022/03/28 09:40:40;;;;;;;19.87;17.27;;;15.60;99.90;;;;;;5038454;28;20414;-69
2022/03/28 09:43:16;;;;;;;23.80;18.53;;;15.80;99.90;;;;;;5021961;28;20479;-69
2022/03/28 09:45:46;;;;;;;21.77;16.77;;;15.80;99.90;;;;;;5039805;28;20791;-69
2022/03/28 09:48:14;;;;;;;21.73;18.17;;;15.90;99.90;;;;;;5039760;28;20406;-70
2022/03/28 09:50:49;;;;;;;23.90;20.35;;;16.00;99.90;;;;;;5038250;28;20459;-70
2022/03/28 09:53:27;;;;;;;26.50;19.03;;;16.10;99.90;;;;;;5037991;28;20190;-69
2022/03/28 09:55:59;;;;;;;22.40;18.50;;;16.20;99.90;;;;;;5040240;28;20385;-69
2022/03/28 09:58:37;;;;;;;22.93;18.00;;;16.30;99.90;;;;;;5039743;28;21016;-68
2022/03/28 10:01:14;;;;;;;22.90;18.60;;;16.30;99.90;;;;;;5020937;28;20475;-69
2022/03/28 10:03:39;;;;;;;28.03;18.90;;;16.50;99.90;;;;;;5037200;28;20452;-70
2022/03/28 10:06:06;;;;;;;21.63;18.30;;;16.60;99.90;;;;;;5039214;28;20405;-69
2022/03/28 10:08:34;;;;;;;27.87;19.30;;;16.70;99.90;;;;;;5040112;28;20205;-70
2022/03/28 10:11:00;;;;;;;22.70;17.80;;;16.80;99.90;;;;;;5041003;28;20416;-70
2022/03/28 10:13:26;;;;;;;27.63;20.00;;;17.00;99.90;;;;;;5038990;28;20441;-69
2022/03/28 10:15:53;;;;;;;23.80;20.90;;;17.10;99.90;;;;;;5023229;28;20501;-70
2022/03/28 10:18:19;;;;;;;22.73;18.20;;;17.20;99.90;;;;;;5041600;28;20412;-70
2022/03/28 10:20:52;;;;;;;23.90;18.50;;;17.20;99.90;;;;;;5040652;28;20417;-70
2022/03/28 10:23:20;;;;;;;23.23;18.77;;;17.20;99.90;;;;;;5039380;28;20476;-69
2022/03/28 10:25:46;;;;;;;26.23;18.60;;;17.30;99.90;;;;;;5040262;28;20401;-69
2022/03/28 10:28:12;;;;;;;22.67;20.17;;;17.30;99.90;;;;;;5039896;28;20401;-69
2022/03/28 10:30:38;;;;;;;25.87;20.20;;;17.30;99.90;;;;;;5039959;28;20743;-69
2022/03/28 10:33:21;;;;;;;26.37;19.70;;;17.50;99.70;;;;;;5040029;28;20609;-70
2022/03/28 10:35:58;;;;;;;26.60;20.90;;;17.50;99.40;;;;;;5037669;28;20261;-69
2022/03/28 10:38:24;;;;;;;26.40;20.93;;;17.40;99.40;;;;;;5025172;28;20422;-70
2022/03/28 10:41:05;;;;;;;25.63;19.80;;;17.30;99.00;;;;;;5025880;28;20429;-70
2022/03/28 10:43:33;;;;;;;26.27;20.40;;;17.30;99.00;;;;;;5042004;22;20228;-71
2022/03/28 10:46:10;;;;;;;22.33;18.47;;;17.40;99.20;;;;;;5003977;28;20455;-70
2022/03/28 10:48:39;;;;;;;25.10;19.83;;;17.40;98.80;;;;;;5008455;28;20442;-71
2022/03/28 10:51:12;;;;;;;25.13;19.03;;;17.30;99.00;;;;;;5014476;28;20830;-71
2022/03/28 10:53:40;;;;;;;26.73;20.40;;;17.30;98.90;;;;;;5014803;28;20426;-71
2022/03/28 10:56:17;;;;;;;24.93;20.07;;;17.30;99.20;;;;;;5014693;28;20437;-71
2022/03/28 10:58:49;;;;;;;27.13;20.63;;;17.30;99.10;;;;;;5016250;28;20513;-71
2022/03/28 11:01:17;;;;;;;23.60;20.10;;;17.40;98.80;;;;;;5015515;28;20402;-71
2022/03/28 11:04:27;;;;;;;23.27;18.87;;;17.50;98.70;;;;;;5014591;28;20468;-70
2022/03/28 11:07:11;;;;;;;22.10;18.47;;;17.60;98.40;;;;;;4934552;29;20862;-70
2022/03/28 11:09:48;;;;;;;26.10;20.87;;;17.80;98.20;;;;;;4933738;29;20473;-70
2022/03/28 11:12:37;;;;;;;25.50;19.00;;;17.70;97.20;;;;;;4934500;29;20406;-70
2022/03/28 11:15:16;;;;;;;27.13;17.20;;;17.60;97.30;;;;;;4934480;29;20398;-69
2022/03/28 11:18:04;;;;;;;23.17;17.53;;;17.50;95.90;;;;;;4934602;29;20437;-70
2022/03/28 11:20:47;;;;;;;23.97;18.13;;;17.50;96.30;;;;;;4933703;29;20500;-71
2022/03/28 11:23:15;;;;;;;22.57;17.87;;;17.50;96.50;;;;;;4934329;29;20857;-71
2022/03/28 11:25:54;;;;;;;25.07;18.10;;;17.40;96.30;;;;;;4934377;29;20764;-70
2022/03/28 11:28:23;;;;;;;26.57;19.57;;;17.40;96.60;;;;;;4934121;29;20402;-70
2022/03/28 11:31:02;;;;;;;24.53;18.53;;;17.40;97.00;;;;;;4933937;29;20430;-70
2022/03/28 11:33:40;;;;;;;22.57;18.20;;;17.30;96.30;;;;;;4936594;29;20858;-70
2022/03/28 11:36:09;;;;;;;26.13;17.47;;;17.30;96.00;;;;;;4934776;29;20867;-71
2022/03/28 11:38:42;;;;;;;21.20;15.53;;;17.40;96.00;;;;;;4934194;29;20922;-71
2022/03/28 11:41:12;;;;;;;21.53;16.50;;;17.50;95.60;;;;;;4933751;29;20437;-70
2022/03/28 11:43:46;;;;;;;21.40;17.17;;;17.60;95.20;;;;;;5004640;28;20540;-70
2022/03/28 11:46:14;;;;;;;21.50;15.53;;;17.60;94.90;;;;;;5013744;28;20403;-70
2022/03/28 11:48:58;;;;;;;21.30;16.20;;;17.60;94.70;;;;;;5014087;28;20409;-70
2022/03/28 11:51:27;;;;;;;21.53;15.83;;;17.70;94.90;;;;;;4996584;28;20421;-70
2022/03/28 11:53:53;;;;;;;20.70;15.90;;;17.70;94.70;;;;;;5013688;28;20445;-71
2022/03/28 11:56:25;;;;;;;20.03;16.50;;;17.80;94.60;;;;;;5014330;28;20414;-71
2022/03/28 11:58:58;;;;;;;20.50;15.17;;;17.70;94.60;;;;;;5014052;28;20673;-69
2022/03/28 12:01:23;;;;;;;22.03;17.20;;;17.70;92.90;;;;;;5013645;28;20407;-70
2022/03/28 12:03:50;;;;;;;20.83;17.10;;;17.70;94.50;;;;;;5015073;28;20476;-69
2022/03/28 12:06:34;;;;;;;25.03;18.60;;;17.60;93.90;;;;;;5013570;28;20203;-70
2022/03/28 12:09:00;;;;;;;19.37;16.33;;;17.60;94.30;;;;;;5013633;28;20409;-70
2022/03/28 12:11:26;;;;;;;17.80;15.43;;;17.70;94.10;;;;;;5013486;28;20826;-70
2022/03/28 12:13:54;;;;;;;22.93;16.87;;;17.80;93.40;;;;;;5014483;28;20442;-70
2022/03/28 12:16:21;;;;;;;24.50;17.80;;;17.70;93.30;;;;;;5013876;28;20502;-71
2022/03/28 12:18:48;;;;;;;20.00;16.37;;;17.70;93.50;;;;;;5013436;28;20973;-71
2022/03/28 12:21:14;;;;;;;19.93;15.90;;;17.60;93.40;;;;;;5013132;28;20433;-71
2022/03/28 12:23:39;;;;;;;20.20;15.47;;;17.70;93.10;;;;;;5014500;28;20466;-72
2022/03/28 12:26:05;;;;;;;22.40;13.97;;;17.70;92.30;;;;;;5013575;28;20190;-71
2022/03/28 12:28:35;;;;;;;20.53;15.70;;;17.80;92.10;;;;;;5013535;28;20537;-71
2022/03/28 12:31:03;;;;;;;21.00;15.27;;;17.80;91.80;;;;;;5012627;28;20175;-71
2022/03/28 12:33:34;;;;;;;22.40;17.07;;;17.80;91.20;;;;;;5013690;28;20472;-71
2022/03/28 12:36:00;;;;;;;18.47;15.00;;;17.90;91.90;;;;;;5012902;28;20407;-71
2022/03/28 12:38:29;;;;;;;19.93;14.60;;;18.00;91.30;;;;;;5030720;28;20705;-71